sensor_id;sensor_type;location;lat;lon;timestamp;temperature;humidity
22442;DHT22;11388;54.456;9.752;2023-07-31T00:00:49;15.00;99.90
22442;DHT22;11388;54.456;9.752;2023-07-31T00:03:14;15.10;99.90
22442;DHT22;11388;54.456;9.752;2023-07-31T00:05:40;15.10;99.90
22442;DHT22;11388;54.456;9.752;2023-07-31T00:08:06;15.00;99.90
22442;DHT22;11388;54.456;9.752;2023-07-31T00:10:32;15.00;99.90
22442;DHT22;11388;54.456;9.752;2023-07-31T00:12:59;15.00;99.90
22442;DHT22;11388;54.456;9.752;2023-07-31T00:15:24;15.10;99.90
22442;DHT22;11388;54.456;9.752;2023-07-31T00:17:50;15.20;99.90
22442;DHT22;11388;54.456;9.752;2023-07-31T00:20:16;15.20;99.90
22442;DHT22;11388;54.456;9.752;2023-07-31T00:22:42;15.20;99.90
22442;DHT22;11388;54.456;9.752;2023-07-31T00:25:08;15.20;99.90
22442;DHT22;11388;54.456;9.752;2023-07-31T00:27:34;15.30;99.90
22442;DHT22;11388;54.456;9.752;2023-07-31T00:29:59;15.30;99.90
22442;DHT22;11388;54.456;9.752;2023-07-31T00:32:25;15.20;99.90
22442;DHT22;11388;54.456;9.752;2023-07-31T00:34:51;15.20;99.90
22442;DHT22;11388;54.456;9.752;2023-07-31T00:37:17;15.30;99.90
22442;DHT22;11388;54.456;9.752;2023-07-31T00:39:43;15.30;99.90
22442;DHT22;11388;54.456;9.752;2023-07-31T00:42:09;15.20;99.90
22442;DHT22;11388;54.456;9.752;2023-07-31T00:44:34;15.30;99.90
22442;DHT22;11388;54.456;9.752;2023-07-31T00:47:00;15.20;99.90
22442;DHT22;11388;54.456;9.752;2023-07-31T00:49:26;15.30;99.90
22442;DHT22;11388;54.456;9.752;2023-07-31T00:51:53;15.30;99.90
22442;DHT22;11388;54.456;9.752;2023-07-31T00:54:19;15.40;99.90
22442;DHT22;11388;54.456;9.752;2023-07-31T00:56:46;15.40;99.90
22442;DHT22;11388;54.456;9.752;2023-07-31T00:59:14;15.40;99.90
22442;DHT22;11388;54.456;9.752;2023-07-31T01:01:40;15.30;99.90
22442;DHT22;11388;54.456;9.752;2023-07-31T01:04:06;15.40;99.90
22442;DHT22;11388;54.456;9.752;2023-07-31T01:06:48;15.40;99.90
22442;DHT22;11388;54.456;9.752;2023-07-31T01:09:22;15.40;99.90
22442;DHT22;11388;54.456;9.752;2023-07-31T01:11:57;15.40;99.90
22442;DHT22;11388;54.456;9.752;2023-07-31T01:14:25;15.50;99.90
22442;DHT22;11388;54.456;9.752;2023-07-31T01:16:51;15.40;99.90
22442;DHT22;11388;54.456;9.752;2023-07-31T01:19:21;15.50;99.90
22442;DHT22;11388;54.456;9.752;2023-07-31T01:22:21;15.50;99.90
22442;DHT22;11388;54.456;9.752;2023-07-31T01:27:44;15.50;99.90
22442;DHT22;11388;54.456;9.752;2023-07-31T01:30:16;15.50;99.90
22442;DHT22;11388;54.456;9.752;2023-07-31T01:32:43;15.40;99.90
22442;DHT22;11388;54.456;9.752;2023-07-31T01:35:09;15.40;99.90
22442;DHT22;11388;54.456;9.752;2023-07-31T01:37:36;15.40;99.90
22442;DHT22;11388;54.456;9.752;2023-07-31T01:40:02;15.30;99.90
22442;DHT22;11388;54.456;9.752;2023-07-31T01:42:28;15.40;99.90
22442;DHT22;11388;54.456;9.752;2023-07-31T01:44:54;15.40;99.90
22442;DHT22;11388;54.456;9.752;2023-07-31T01:47:19;15.40;99.90
22442;DHT22;11388;54.456;9.752;2023-07-31T01:49:45;15.40;99.90
22442;DHT22;11388;54.456;9.752;2023-07-31T01:52:11;15.40;99.90
22442;DHT22;11388;54.456;9.752;2023-07-31T01:54:37;15.40;99.90
22442;DHT22;11388;54.456;9.752;2023-07-31T01:57:03;15.40;99.90
22442;DHT22;11388;54.456;9.752;2023-07-31T01:59:28;15.30;99.90
22442;DHT22;11388;54.456;9.752;2023-07-31T02:01:54;15.20;99.90
22442;DHT22;11388;54.456;9.752;2023-07-31T02:04:20;15.20;99.90
22442;DHT22;11388;54.456;9.752;2023-07-31T02:06:46;15.20;99.90
22442;DHT22;11388;54.456;9.752;2023-07-31T02:09:11;15.20;99.90
22442;DHT22;11388;54.456;9.752;2023-07-31T02:11:37;15.20;99.90
22442;DHT22;11388;54.456;9.752;2023-07-31T02:14:03;15.10;99.90
22442;DHT22;11388;54.456;9.752;2023-07-31T02:16:29;15.20;99.90
22442;DHT22;11388;54.456;9.752;2023-07-31T02:18:54;15.10;99.90
22442;DHT22;11388;54.456;9.752;2023-07-31T02:21:20;15.00;99.90
22442;DHT22;11388;54.456;9.752;2023-07-31T02:23:47;15.10;99.90
22442;DHT22;11388;54.456;9.752;2023-07-31T02:26:12;15.10;99.90
22442;DHT22;11388;54.456;9.752;2023-07-31T02:28:38;15.10;99.90
22442;DHT22;11388;54.456;9.752;2023-07-31T02:31:04;15.20;99.90
22442;DHT22;11388;54.456;9.752;2023-07-31T02:33:30;15.20;99.90
22442;DHT22;11388;54.456;9.752;2023-07-31T02:35:55;15.20;99.90
22442;DHT22;11388;54.456;9.752;2023-07-31T02:38:22;15.10;99.90
22442;DHT22;11388;54.456;9.752;2023-07-31T02:40:47;15.00;99.90
22442;DHT22;11388;54.456;9.752;2023-07-31T02:43:13;15.00;99.90
22442;DHT22;11388;54.456;9.752;2023-07-31T02:45:39;15.10;99.90
22442;DHT22;11388;54.456;9.752;2023-07-31T02:48:05;15.10;99.90
22442;DHT22;11388;54.456;9.752;2023-07-31T02:50:31;15.00;99.90
22442;DHT22;11388;54.456;9.752;2023-07-31T02:52:57;15.00;99.90
22442;DHT22;11388;54.456;9.752;2023-07-31T02:55:23;15.10;99.90
22442;DHT22;11388;54.456;9.752;2023-07-31T02:57:49;15.10;99.90
22442;DHT22;11388;54.456;9.752;2023-07-31T03:00:14;15.10;99.90
22442;DHT22;11388;54.456;9.752;2023-07-31T03:02:40;15.10;99.90
22442;DHT22;11388;54.456;9.752;2023-07-31T03:05:06;15.10;99.90
22442;DHT22;11388;54.456;9.752;2023-07-31T03:07:32;15.10;99.90
22442;DHT22;11388;54.456;9.752;2023-07-31T03:09:58;15.10;99.90
22442;DHT22;11388;54.456;9.752;2023-07-31T03:12:23;15.00;99.90
22442;DHT22;11388;54.456;9.752;2023-07-31T03:14:49;15.00;99.90
22442;DHT22;11388;54.456;9.752;2023-07-31T03:17:15;15.10;99.90
22442;DHT22;11388;54.456;9.752;2023-07-31T03:19:41;15.00;99.90
22442;DHT22;11388;54.456;9.752;2023-07-31T03:22:06;15.10;99.90
22442;DHT22;11388;54.456;9.752;2023-07-31T03:24:32;15.20;99.90
22442;DHT22;11388;54.456;9.752;2023-07-31T03:26:58;15.10;99.90
22442;DHT22;11388;54.456;9.752;2023-07-31T03:29:24;15.10;99.90
22442;DHT22;11388;54.456;9.752;2023-07-31T03:31:49;15.20;99.90
22442;DHT22;11388;54.456;9.752;2023-07-31T03:34:15;15.20;99.90
22442;DHT22;11388;54.456;9.752;2023-07-31T03:36:44;15.20;99.90
22442;DHT22;11388;54.456;9.752;2023-07-31T03:39:10;15.20;99.90
22442;DHT22;11388;54.456;9.752;2023-07-31T03:41:36;15.30;99.90
22442;DHT22;11388;54.456;9.752;2023-07-31T03:44:01;15.40;99.90
22442;DHT22;11388;54.456;9.752;2023-07-31T03:46:27;15.40;99.90
22442;DHT22;11388;54.456;9.752;2023-07-31T03:48:53;15.40;99.90
22442;DHT22;11388;54.456;9.752;2023-07-31T03:51:19;15.40;99.90
22442;DHT22;11388;54.456;9.752;2023-07-31T03:53:45;15.40;99.90
22442;DHT22;11388;54.456;9.752;2023-07-31T03:56:11;15.40;99.90
22442;DHT22;11388;54.456;9.752;2023-07-31T03:58:37;15.40;99.90
22442;DHT22;11388;54.456;9.752;2023-07-31T04:01:03;15.50;99.90
22442;DHT22;11388;54.456;9.752;2023-07-31T04:03:29;15.50;99.90
22442;DHT22;11388;54.456;9.752;2023-07-31T04:05:55;15.60;99.90
22442;DHT22;11388;54.456;9.752;2023-07-31T04:08:22;15.60;99.90
22442;DHT22;11388;54.456;9.752;2023-07-31T04:10:48;15.60;99.90
22442;DHT22;11388;54.456;9.752;2023-07-31T04:13:14;15.60;99.90
22442;DHT22;11388;54.456;9.752;2023-07-31T04:15:40;15.70;99.90
22442;DHT22;11388;54.456;9.752;2023-07-31T04:18:06;15.60;99.90
22442;DHT22;11388;54.456;9.752;2023-07-31T04:20:31;15.70;99.90
22442;DHT22;11388;54.456;9.752;2023-07-31T04:22:57;15.70;99.90
22442;DHT22;11388;54.456;9.752;2023-07-31T04:25:23;15.80;99.90
22442;DHT22;11388;54.456;9.752;2023-07-31T04:27:48;15.90;99.90
22442;DHT22;11388;54.456;9.752;2023-07-31T04:30:17;16.00;99.90
22442;DHT22;11388;54.456;9.752;2023-07-31T04:32:42;15.90;99.90
22442;DHT22;11388;54.456;9.752;2023-07-31T04:35:11;15.90;99.90
22442;DHT22;11388;54.456;9.752;2023-07-31T04:41:24;16.00;99.90
22442;DHT22;11388;54.456;9.752;2023-07-31T04:51:12;16.20;99.90
22442;DHT22;11388;54.456;9.752;2023-07-31T04:54:09;16.30;99.90
22442;DHT22;11388;54.456;9.752;2023-07-31T04:56:47;16.30;99.90
22442;DHT22;11388;54.456;9.752;2023-07-31T04:59:25;16.30;99.90
22442;DHT22;11388;54.456;9.752;2023-07-31T06:04:40;17.10;99.90
22442;DHT22;11388;54.456;9.752;2023-07-31T06:07:16;17.00;99.90
22442;DHT22;11388;54.456;9.752;2023-07-31T07:41:53;17.80;99.90
22442;DHT22;11388;54.456;9.752;2023-07-31T16:19:47;19.70;99.90
22442;DHT22;11388;54.456;9.752;2023-07-31T17:43:22;19.20;99.90
22442;DHT22;11388;54.456;9.752;2023-07-31T17:48:53;19.20;99.90
22442;DHT22;11388;54.456;9.752;2023-07-31T17:51:27;19.10;99.90
22442;DHT22;11388;54.456;9.752;2023-07-31T17:53:55;19.10;99.90
22442;DHT22;11388;54.456;9.752;2023-07-31T17:59:32;18.90;99.90
22442;DHT22;11388;54.456;9.752;2023-07-31T18:59:52;18.50;99.90
22442;DHT22;11388;54.456;9.752;2023-07-31T19:02:29;18.60;99.90
22442;DHT22;11388;54.456;9.752;2023-07-31T19:08:03;18.60;99.90
22442;DHT22;11388;54.456;9.752;2023-07-31T19:10:43;18.50;99.90
22442;DHT22;11388;54.456;9.752;2023-07-31T19:13:24;18.50;99.90
22442;DHT22;11388;54.456;9.752;2023-07-31T19:16:39;18.40;99.90
22442;DHT22;11388;54.456;9.752;2023-07-31T19:22:53;18.30;99.90
22442;DHT22;11388;54.456;9.752;2023-07-31T19:25:50;18.20;99.90
22442;DHT22;11388;54.456;9.752;2023-07-31T19:28:22;18.10;99.90
22442;DHT22;11388;54.456;9.752;2023-07-31T19:30:59;18.00;99.90
22442;DHT22;11388;54.456;9.752;2023-07-31T19:33:44;18.00;99.90
22442;DHT22;11388;54.456;9.752;2023-07-31T19:36:30;18.10;99.90
22442;DHT22;11388;54.456;9.752;2023-07-31T19:39:31;18.10;99.90
22442;DHT22;11388;54.456;9.752;2023-07-31T19:42:04;18.10;99.90
22442;DHT22;11388;54.456;9.752;2023-07-31T19:44:50;18.10;99.90
22442;DHT22;11388;54.456;9.752;2023-07-31T19:47:30;18.10;99.90
22442;DHT22;11388;54.456;9.752;2023-07-31T19:50:01;18.10;99.90
22442;DHT22;11388;54.456;9.752;2023-07-31T19:53:03;18.00;99.90
22442;DHT22;11388;54.456;9.752;2023-07-31T19:55:37;18.00;99.90
22442;DHT22;11388;54.456;9.752;2023-07-31T19:58:05;18.00;99.90
22442;DHT22;11388;54.456;9.752;2023-07-31T20:00:36;17.90;99.90
22442;DHT22;11388;54.456;9.752;2023-07-31T20:03:04;17.90;99.90
22442;DHT22;11388;54.456;9.752;2023-07-31T20:05:44;17.90;99.90
22442;DHT22;11388;54.456;9.752;2023-07-31T20:08:27;18.00;99.90
22442;DHT22;11388;54.456;9.752;2023-07-31T20:10:56;18.00;99.90
22442;DHT22;11388;54.456;9.752;2023-07-31T20:20:01;18.10;99.90
22442;DHT22;11388;54.456;9.752;2023-07-31T20:22:48;18.10;99.90
22442;DHT22;11388;54.456;9.752;2023-07-31T20:25:25;18.10;99.90
22442;DHT22;11388;54.456;9.752;2023-07-31T20:28:17;18.10;99.90
22442;DHT22;11388;54.456;9.752;2023-07-31T20:30:51;18.10;99.90
22442;DHT22;11388;54.456;9.752;2023-07-31T20:33:43;18.10;99.90
22442;DHT22;11388;54.456;9.752;2023-07-31T20:39:44;17.90;99.90
22442;DHT22;11388;54.456;9.752;2023-07-31T20:42:17;17.80;99.90
22442;DHT22;11388;54.456;9.752;2023-07-31T20:48:04;17.90;99.90
22442;DHT22;11388;54.456;9.752;2023-07-31T20:50:48;17.90;99.90
22442;DHT22;11388;54.456;9.752;2023-07-31T20:53:21;17.90;99.90
22442;DHT22;11388;54.456;9.752;2023-07-31T20:55:54;17.90;99.90
22442;DHT22;11388;54.456;9.752;2023-07-31T20:59:07;18.00;99.90
22442;DHT22;11388;54.456;9.752;2023-07-31T21:01:42;17.90;99.90
22442;DHT22;11388;54.456;9.752;2023-07-31T21:04:10;17.90;99.90
22442;DHT22;11388;54.456;9.752;2023-07-31T21:06:42;17.80;99.90
22442;DHT22;11388;54.456;9.752;2023-07-31T21:12:12;17.90;99.90
22442;DHT22;11388;54.456;9.752;2023-07-31T21:14:45;17.80;99.90
22442;DHT22;11388;54.456;9.752;2023-07-31T21:17:18;17.90;99.90
22442;DHT22;11388;54.456;9.752;2023-07-31T21:19:49;17.90;99.90
22442;DHT22;11388;54.456;9.752;2023-07-31T21:22:21;17.90;99.90
22442;DHT22;11388;54.456;9.752;2023-07-31T21:24:58;17.80;99.90
22442;DHT22;11388;54.456;9.752;2023-07-31T21:27:24;17.80;99.90
22442;DHT22;11388;54.456;9.752;2023-07-31T21:29:59;17.80;99.90
22442;DHT22;11388;54.456;9.752;2023-07-31T21:32:37;17.90;99.90
22442;DHT22;11388;54.456;9.752;2023-07-31T21:35:19;18.00;99.90
22442;DHT22;11388;54.456;9.752;2023-07-31T21:38:23;17.90;99.90
22442;DHT22;11388;54.456;9.752;2023-07-31T21:41:25;18.10;99.90
22442;DHT22;11388;54.456;9.752;2023-07-31T21:44:21;18.00;99.90
22442;DHT22;11388;54.456;9.752;2023-07-31T21:46:52;18.10;99.90
22442;DHT22;11388;54.456;9.752;2023-07-31T21:52:41;18.10;99.90
22442;DHT22;11388;54.456;9.752;2023-07-31T21:55:08;18.10;99.90
22442;DHT22;11388;54.456;9.752;2023-07-31T21:57:43;18.10;99.90
22442;DHT22;11388;54.456;9.752;2023-07-31T22:00:20;18.10;99.90
22442;DHT22;11388;54.456;9.752;2023-07-31T22:03:05;18.10;99.90
22442;DHT22;11388;54.456;9.752;2023-07-31T22:05:31;18.20;99.90
22442;DHT22;11388;54.456;9.752;2023-07-31T22:08:21;18.20;99.90
22442;DHT22;11388;54.456;9.752;2023-07-31T22:10:54;18.30;99.90
22442;DHT22;11388;54.456;9.752;2023-07-31T22:13:51;18.30;99.90
22442;DHT22;11388;54.456;9.752;2023-07-31T22:16:25;18.30;99.90
22442;DHT22;11388;54.456;9.752;2023-07-31T22:19:05;18.40;99.90
22442;DHT22;11388;54.456;9.752;2023-07-31T22:21:33;18.40;99.90
22442;DHT22;11388;54.456;9.752;2023-07-31T22:26:48;18.30;99.90
22442;DHT22;11388;54.456;9.752;2023-07-31T22:29:40;18.30;99.90
22442;DHT22;11388;54.456;9.752;2023-07-31T22:32:22;18.30;99.90
22442;DHT22;11388;54.456;9.752;2023-07-31T22:35:27;18.20;99.90
22442;DHT22;11388;54.456;9.752;2023-07-31T22:38:00;18.20;99.90
22442;DHT22;11388;54.456;9.752;2023-07-31T22:40:46;18.20;99.90
22442;DHT22;11388;54.456;9.752;2023-07-31T22:43:38;18.30;99.90
22442;DHT22;11388;54.456;9.752;2023-07-31T22:46:11;18.20;99.90
22442;DHT22;11388;54.456;9.752;2023-07-31T22:49:07;18.20;99.90
22442;DHT22;11388;54.456;9.752;2023-07-31T22:51:38;18.30;99.90
22442;DHT22;11388;54.456;9.752;2023-07-31T22:57:49;18.30;99.90
22442;DHT22;11388;54.456;9.752;2023-07-31T23:03:46;18.20;99.90
22442;DHT22;11388;54.456;9.752;2023-07-31T23:06:15;18.30;99.90
22442;DHT22;11388;54.456;9.752;2023-07-31T23:08:58;18.20;99.90
22442;DHT22;11388;54.456;9.752;2023-07-31T23:14:48;18.10;99.90
22442;DHT22;11388;54.456;9.752;2023-07-31T23:17:19;18.10;99.90
22442;DHT22;11388;54.456;9.752;2023-07-31T23:20:06;18.20;99.90
22442;DHT22;11388;54.456;9.752;2023-07-31T23:22:37;18.20;99.90
22442;DHT22;11388;54.456;9.752;2023-07-31T23:25:06;18.10;99.90
22442;DHT22;11388;54.456;9.752;2023-07-31T23:27:38;18.10;99.90
22442;DHT22;11388;54.456;9.752;2023-07-31T23:30:10;18.10;99.90
22442;DHT22;11388;54.456;9.752;2023-07-31T23:32:39;18.10;99.90
22442;DHT22;11388;54.456;9.752;2023-07-31T23:35:08;18.10;99.90
22442;DHT22;11388;54.456;9.752;2023-07-31T23:37:34;18.10;99.90
22442;DHT22;11388;54.456;9.752;2023-07-31T23:40:00;18.10;99.90
22442;DHT22;11388;54.456;9.752;2023-07-31T23:42:33;18.00;99.90
22442;DHT22;11388;54.456;9.752;2023-07-31T23:45:01;17.90;99.90
22442;DHT22;11388;54.456;9.752;2023-07-31T23:47:41;18.00;99.90
22442;DHT22;11388;54.456;9.752;2023-07-31T23:50:10;18.00;99.90
22442;DHT22;11388;54.456;9.752;2023-07-31T23:52:44;18.00;99.90
22442;DHT22;11388;54.456;9.752;2023-07-31T23:55:54;18.00;99.90
